Time;durP1;ratioP1;P1;durP2;ratioP2;P2;SDS_P1;SDS_P2;PMS_P1;PMS_P2;Temp;Humidity;BMP_temperature;BMP_pressure;BME280_temperature;BME280_humidity;BME280_pressure;Samples;Min_cycle;Max_cycle;Signal;HPM_P1;HPM_P2
2023/01/18 00:01:14;;;;;;;10.93;6.73;;;1.20;99.90;;;;;;5047582;28;20478;-61
2023/01/18 00:03:42;;;;;;;9.40;6.37;;;1.20;99.90;;;;;;5044903;28;20470;-60
2023/01/18 00:06:12;;;;;;;8.57;6.00;;;1.20;99.90;;;;;;5035986;28;20459;-60
2023/01/18 00:08:41;;;;;;;14.90;6.87;;;1.20;99.90;;;;;;5035124;28;20507;-61
2023/01/18 00:11:11;;;;;;;9.93;7.10;;;1.20;99.90;;;;;;5035715;28;20466;-60
2023/01/18 00:13:39;;;;;;;9.17;6.63;;;1.20;99.90;;;;;;5035629;28;20911;-60
2023/01/18 00:16:11;;;;;;;9.67;6.83;;;1.20;99.90;;;;;;5035455;28;20479;-60
2023/01/18 00:18:39;;;;;;;10.40;6.80;;;1.20;99.90;;;;;;5035277;28;21040;-60
2023/01/18 00:21:09;;;;;;;9.67;7.53;;;1.20;99.90;;;;;;5035500;28;20459;-60
2023/01/18 00:23:39;;;;;;;9.63;7.60;;;1.20;99.90;;;;;;5035017;28;20479;-61
2023/01/18 00:26:09;;;;;;;13.20;7.47;;;1.10;99.90;;;;;;5034877;28;20468;-60
2023/01/18 00:28:39;;;;;;;11.93;7.47;;;1.10;99.90;;;;;;5047240;28;20474;-60
2023/01/18 00:31:12;;;;;;;12.80;8.17;;;1.10;99.90;;;;;;5045234;28;20470;-61
2023/01/18 00:33:42;;;;;;;15.20;7.87;;;1.10;99.90;;;;;;5044684;28;20476;-60
2023/01/18 00:36:11;;;;;;;13.17;7.60;;;1.20;99.90;;;;;;5043541;28;20475;-60
2023/01/18 00:38:41;;;;;;;11.70;7.30;;;1.20;99.90;;;;;;5034191;28;20971;-60
2023/01/18 00:41:09;;;;;;;10.37;7.53;;;1.20;99.90;;;;;;5037480;28;20470;-60
2023/01/18 00:43:39;;;;;;;11.30;7.40;;;1.20;99.90;;;;;;5033920;28;20483;-60
2023/01/18 00:46:08;;;;;;;12.90;8.70;;;1.20;99.90;;;;;;5034748;28;20463;-60
2023/01/18 00:48:38;;;;;;;10.63;7.73;;;1.20;99.90;;;;;;5034879;28;20874;-61
2023/01/18 00:51:08;;;;;;;12.47;7.97;;;1.10;99.90;;;;;;5035105;28;20475;-60
2023/01/18 00:53:36;;;;;;;14.23;8.80;;;1.20;99.90;;;;;;5034304;28;20467;-60
2023/01/18 00:56:07;;;;;;;11.40;8.37;;;1.20;99.90;;;;;;5034980;28;21097;-61
2023/01/18 00:58:36;;;;;;;12.00;8.77;;;1.20;99.90;;;;;;5046143;28;20517;-61
2023/01/18 01:01:05;;;;;;;11.17;8.23;;;1.10;99.90;;;;;;5045690;28;20466;-60
2023/01/18 01:06:43;;;;;;;15.97;9.47;;;1.10;99.90;;;;;;5054434;28;20833;-60
2023/01/18 01:06:43;;;;;;;11.70;8.67;;;1.10;99.90;;;;;;5041677;28;20818;-60
2023/01/18 01:09:12;;;;;;;13.07;9.20;;;1.10;99.90;;;;;;5046138;28;20887;-60
2023/01/18 01:12:31;;;;;;;13.50;9.57;;;1.00;99.90;;;;;;5034348;28;20473;-62
2023/01/18 01:28:23;;;;;;;17.13;10.40;;;1.10;99.90;;;;;;5034237;28;20919;-61
2023/01/18 01:30:51;;;;;;;14.90;9.27;;;1.10;99.90;;;;;;5045398;28;20474;-60
2023/01/18 01:33:19;;;;;;;17.10;10.60;;;1.10;99.90;;;;;;5053948;28;20498;-61
2023/01/18 01:35:47;;;;;;;16.37;10.47;;;1.10;99.90;;;;;;5045298;28;20470;-61
2023/01/18 01:38:15;;;;;;;16.47;10.43;;;1.10;99.90;;;;;;5050286;28;20478;-60
2023/01/18 01:40:43;;;;;;;15.73;10.03;;;1.10;99.90;;;;;;5033810;28;20490;-61
2023/01/18 01:43:13;;;;;;;17.53;11.50;;;1.10;99.90;;;;;;5033690;28;20456;-61
2023/01/18 01:45:42;;;;;;;13.77;9.57;;;1.00;99.90;;;;;;5033626;28;20464;-60
2023/01/18 01:48:11;;;;;;;17.20;11.43;;;1.10;99.90;;;;;;5033870;28;20819;-60
2023/01/18 01:50:40;;;;;;;19.03;11.30;;;1.00;99.90;;;;;;5033370;28;20808;-60
2023/01/18 01:53:10;;;;;;;16.10;11.30;;;1.10;99.90;;;;;;5033850;28;20832;-60
2023/01/18 01:55:40;;;;;;;17.70;10.87;;;1.00;99.90;;;;;;5033266;28;20521;-60
2023/01/18 01:58:13;;;;;;;14.53;10.97;;;1.00;99.90;;;;;;5041737;28;20463;-60
2023/01/18 02:00:43;;;;;;;18.57;11.57;;;1.00;99.90;;;;;;5044349;28;20470;-60
2023/01/18 02:03:14;;;;;;;16.20;11.20;;;1.00;99.90;;;;;;5053477;28;20462;-60
2023/01/18 02:05:44;;;;;;;15.13;11.13;;;0.90;99.90;;;;;;5044784;28;20463;-61
2023/01/18 02:08:21;;;;;;;16.73;11.27;;;0.90;99.90;;;;;;5050749;28;20494;-60
2023/01/18 02:10:49;;;;;;;15.10;11.17;;;0.90;99.90;;;;;;5033341;28;20465;-60
2023/01/18 02:13:19;;;;;;;15.00;10.13;;;0.90;99.90;;;;;;5033358;28;20961;-60
2023/01/18 02:15:55;;;;;;;14.60;10.87;;;0.90;99.90;;;;;;5032846;28;20470;-60
2023/01/18 02:18:28;;;;;;;18.70;11.90;;;0.90;99.90;;;;;;5033313;28;20467;-60
2023/01/18 02:21:16;;;;;;;16.20;11.07;;;0.90;99.90;;;;;;5013326;28;20495;-60
2023/01/18 02:24:30;;;;;;;15.53;10.67;;;0.80;99.90;;;;;;5013349;28;20468;-60
2023/01/18 02:27:06;;;;;;;17.57;11.70;;;1.00;99.90;;;;;;5013514;28;20464;-60
2023/01/18 02:30:11;;;;;;;17.47;11.47;;;0.90;99.90;;;;;;5045564;28;20474;-60
2023/01/18 02:32:54;;;;;;;14.47;10.33;;;0.90;99.90;;;;;;5021020;28;20479;-60
2023/01/18 02:35:33;;;;;;;15.43;11.07;;;0.90;99.90;;;;;;5035096;28;20467;-60
2023/01/18 02:38:09;;;;;;;15.37;11.60;;;0.80;99.90;;;;;;5035165;28;20479;-60
2023/01/18 02:40:46;;;;;;;16.83;11.80;;;0.80;99.90;;;;;;5032520;28;20486;-60
2023/01/18 02:46:32;;;;;;;14.10;9.97;;;0.80;99.90;;;;;;5032569;28;20467;-60
2023/01/18 02:49:07;;;;;;;14.47;10.43;;;0.80;99.90;;;;;;5032985;28;20558;-60
2023/01/18 02:51:36;;;;;;;18.20;11.33;;;0.80;99.90;;;;;;5032488;28;20458;-60
2023/01/18 02:54:08;;;;;;;15.37;11.00;;;0.90;99.90;;;;;;5032431;28;20480;-60
2023/01/18 02:56:40;;;;;;;15.30;10.83;;;0.80;99.90;;;;;;5032476;28;20691;-60
2023/01/18 02:59:13;;;;;;;14.43;10.33;;;0.80;99.90;;;;;;5045430;28;20460;-60
2023/01/18 03:01:46;;;;;;;16.23;10.73;;;0.80;99.90;;;;;;5039961;28;20475;-61
2023/01/18 03:04:20;;;;;;;15.03;11.13;;;0.80;99.90;;;;;;5038055;28;20473;-60
2023/01/18 03:06:56;;;;;;;15.87;10.50;;;0.80;99.90;;;;;;5032208;28;20467;-60
2023/01/18 03:09:25;;;;;;;14.80;10.60;;;0.70;99.90;;;;;;5032577;28;20497;-60
2023/01/18 03:12:01;;;;;;;14.00;10.67;;;0.70;99.90;;;;;;5032390;28;20559;-60
2023/01/18 03:14:39;;;;;;;18.80;12.30;;;0.70;99.90;;;;;;5032225;28;20492;-60
2023/01/18 03:17:19;;;;;;;17.40;11.53;;;0.70;99.90;;;;;;5032725;28;20479;-60
2023/01/18 03:20:07;;;;;;;16.50;11.83;;;0.70;99.90;;;;;;5032110;28;20822;-60
2023/01/18 03:25:30;;;;;;;13.40;10.23;;;0.70;99.90;;;;;;5032271;28;20483;-60
2023/01/18 03:33:46;;;;;;;17.00;11.83;;;0.70;99.90;;;;;;5052259;28;20497;-60
2023/01/18 03:36:21;;;;;;;17.17;10.73;;;0.70;99.90;;;;;;5037297;28;20475;-60
2023/01/18 03:38:54;;;;;;;16.93;11.80;;;0.70;99.90;;;;;;5040511;28;20470;-60
2023/01/18 03:41:26;;;;;;;14.83;11.23;;;0.70;99.90;;;;;;5032009;28;20582;-60
2023/01/18 03:43:57;;;;;;;15.73;11.20;;;0.60;99.90;;;;;;5032020;28;20484;-60
2023/01/18 03:46:30;;;;;;;15.23;11.20;;;0.60;99.90;;;;;;5031946;28;20474;-59
2023/01/18 03:49:00;;;;;;;14.47;11.43;;;0.60;99.90;;;;;;5032343;28;20525;-60
2023/01/18 03:51:40;;;;;;;18.30;13.47;;;0.60;99.90;;;;;;5031963;28;20455;-60
2023/01/18 03:54:14;;;;;;;17.67;12.93;;;0.70;99.90;;;;;;5031922;28;20482;-60
2023/01/18 03:56:48;;;;;;;18.57;12.77;;;0.60;99.90;;;;;;5032431;28;20471;-61
2023/01/18 03:59:16;;;;;;;19.83;14.00;;;0.50;99.90;;;;;;5040298;28;20467;-60
2023/01/18 04:01:46;;;;;;;15.97;12.13;;;0.50;99.90;;;;;;5048545;28;20505;-60
2023/01/18 04:04:16;;;;;;;17.60;12.67;;;0.50;99.90;;;;;;5044615;28;20459;-60
2023/01/18 04:06:44;;;;;;;19.07;13.40;;;0.50;99.90;;;;;;5051947;28;20486;-60
2023/01/18 04:09:12;;;;;;;17.63;13.63;;;0.50;99.90;;;;;;5040905;28;20470;-60
2023/01/18 04:11:40;;;;;;;19.83;14.43;;;0.40;99.90;;;;;;5035672;28;20474;-60
2023/01/18 04:14:08;;;;;;;22.17;15.33;;;0.50;99.90;;;;;;5035549;28;20470;-60
2023/01/18 04:16:36;;;;;;;17.43;12.37;;;0.50;99.90;;;;;;5034249;28;20471;-60
2023/01/18 04:19:06;;;;;;;18.37;13.60;;;0.60;99.90;;;;;;5034981;28;20460;-60
2023/01/18 04:21:37;;;;;;;17.37;13.10;;;0.60;99.90;;;;;;5035063;28;20479;-60
2023/01/18 04:24:05;;;;;;;21.07;14.23;;;0.60;99.90;;;;;;5035520;28;20558;-60
2023/01/18 04:26:34;;;;;;;19.57;14.00;;;0.60;99.90;;;;;;5035037;28;20479;-60
2023/01/18 04:29:02;;;;;;;18.17;13.80;;;0.60;99.90;;;;;;5042191;28;20475;-60
2023/01/18 04:31:30;;;;;;;19.17;14.20;;;0.60;99.90;;;;;;5049189;28;20475;-61
2023/01/18 04:33:58;;;;;;;18.87;14.80;;;0.60;99.90;;;;;;5039815;28;20471;-59
2023/01/18 04:36:28;;;;;;;18.23;13.67;;;0.70;99.90;;;;;;5040378;28;20867;-60
2023/01/18 04:38:58;;;;;;;17.70;12.17;;;0.60;99.90;;;;;;5031274;28;20510;-60
2023/01/18 04:41:26;;;;;;;18.03;13.97;;;0.70;99.90;;;;;;5036428;28;20899;-60
2023/01/18 04:43:54;;;;;;;17.77;11.67;;;0.60;99.90;;;;;;5034598;28;20467;-60
2023/01/18 04:46:22;;;;;;;17.63;13.27;;;0.60;99.90;;;;;;5034120;28;20456;-59
2023/01/18 04:48:51;;;;;;;20.77;14.07;;;0.60;99.90;;;;;;5034217;28;20558;-60
2023/01/18 04:51:20;;;;;;;19.10;13.33;;;0.60;99.90;;;;;;5034497;28;20559;-59
2023/01/18 04:53:48;;;;;;;18.70;13.23;;;0.60;99.90;;;;;;5030594;28;20471;-59
2023/01/18 04:56:19;;;;;;;15.83;11.93;;;0.50;99.90;;;;;;5033970;28;20525;-60
2023/01/18 04:58:47;;;;;;;20.70;14.57;;;0.60;99.90;;;;;;5031650;28;20466;-60
2023/01/18 05:01:15;;;;;;;19.57;13.40;;;0.60;99.90;;;;;;5033609;28;20479;-60
2023/01/18 05:03:44;;;;;;;19.60;13.80;;;0.60;99.90;;;;;;5042824;28;20493;-61
2023/01/18 05:06:14;;;;;;;20.80;14.10;;;0.50;99.90;;;;;;5046707;28;20466;-60
2023/01/18 05:08:43;;;;;;;18.60;13.27;;;0.50;99.90;;;;;;5054568;28;21021;-60
2023/01/18 05:11:13;;;;;;;16.20;11.97;;;0.50;99.90;;;;;;5054264;28;20473;-60
2023/01/18 05:13:43;;;;;;;17.40;13.33;;;0.60;99.90;;;;;;5039443;28;20464;-60
2023/01/18 05:16:16;;;;;;;17.23;13.17;;;0.50;99.90;;;;;;5034386;28;20474;-59
2023/01/18 05:18:44;;;;;;;17.30;13.30;;;0.50;99.90;;;;;;5034065;28;20563;-60
2023/01/18 05:21:14;;;;;;;18.20;13.60;;;0.50;99.90;;;;;;5034108;28;20813;-60
2023/01/18 05:23:42;;;;;;;19.07;12.67;;;0.50;99.90;;;;;;5033856;28;20470;-60
2023/01/18 05:26:15;;;;;;;21.60;14.40;;;0.50;99.90;;;;;;5026265;28;21021;-60
2023/01/18 05:28:44;;;;;;;19.23;13.77;;;0.50;99.90;;;;;;5042163;28;20463;-61
2023/01/18 05:31:13;;;;;;;18.50;13.10;;;0.50;99.90;;;;;;5038079;28;20470;-60
2023/01/18 05:33:41;;;;;;;19.10;13.80;;;0.40;99.90;;;;;;5041887;28;20474;-60
2023/01/18 05:36:10;;;;;;;19.13;13.60;;;0.40;99.90;;;;;;5037861;28;20524;-60
2023/01/18 05:38:38;;;;;;;17.33;12.43;;;0.50;99.90;;;;;;5053595;28;20466;-60
2023/01/18 05:41:06;;;;;;;20.53;12.97;;;0.50;99.90;;;;;;5053626;28;20467;-60
2023/01/18 05:43:34;;;;;;;17.93;13.50;;;0.50;99.90;;;;;;5052786;28;20540;-60
2023/01/18 05:46:04;;;;;;;19.93;13.30;;;0.50;99.90;;;;;;5033937;28;20510;-60
2023/01/18 05:48:33;;;;;;;19.10;13.30;;;0.50;99.90;;;;;;5033506;28;20477;-60
2023/01/18 05:51:06;;;;;;;21.37;14.70;;;0.50;99.90;;;;;;5033494;28;20468;-59
2023/01/18 05:53:34;;;;;;;17.50;13.50;;;0.40;99.90;;;;;;5033344;28;20466;-60
2023/01/18 05:56:05;;;;;;;19.87;13.17;;;0.40;99.90;;;;;;5033112;28;20513;-59
2023/01/18 05:58:33;;;;;;;20.73;14.57;;;0.50;99.90;;;;;;5039743;28;20469;-60
2023/01/18 06:01:01;;;;;;;20.00;14.10;;;0.40;99.90;;;;;;5044740;28;20485;-60
2023/01/18 06:03:30;;;;;;;21.77;14.73;;;0.40;99.90;;;;;;5048061;28;20886;-60
2023/01/18 06:05:58;;;;;;;18.57;13.83;;;0.40;99.90;;;;;;5044867;28;20799;-60
2023/01/18 06:08:27;;;;;;;33.80;15.53;;;0.30;99.90;;;;;;5033110;28;20543;-60
2023/01/18 06:10:57;;;;;;;20.67;14.40;;;0.40;99.90;;;;;;5033306;28;20463;-60
2023/01/18 06:13:27;;;;;;;21.27;15.13;;;0.40;99.90;;;;;;5033173;28;20486;-61
2023/01/18 06:15:55;;;;;;;22.03;16.27;;;0.30;99.90;;;;;;5033393;28;20838;-60
2023/01/18 06:18:25;;;;;;;24.00;16.70;;;0.50;99.90;;;;;;5033323;28;20475;-61
2023/01/18 06:20:56;;;;;;;22.83;16.47;;;0.40;99.90;;;;;;5033362;28;20830;-59
2023/01/18 06:23:30;;;;;;;24.60;15.97;;;0.40;99.90;;;;;;5033014;28;20534;-61
2023/01/18 06:25:58;;;;;;;21.93;15.33;;;0.30;99.90;;;;;;5032357;28;21201;-59
2023/01/18 06:28:26;;;;;;;21.17;15.50;;;0.30;99.90;;;;;;5038542;28;20462;-60
2023/01/18 06:30:58;;;;;;;21.20;15.60;;;0.30;99.90;;;;;;5037363;28;20471;-60
2023/01/18 06:33:26;;;;;;;21.60;13.37;;;0.30;99.90;;;;;;5036677;28;20520;-61
2023/01/18 06:35:55;;;;;;;24.87;16.47;;;0.40;99.90;;;;;;5031166;28;20471;-59
2023/01/18 06:38:23;;;;;;;20.87;15.90;;;0.30;99.90;;;;;;5036786;28;20458;-59
2023/01/18 06:40:51;;;;;;;21.73;16.00;;;0.30;99.90;;;;;;5039752;28;20469;-60
2023/01/18 06:43:20;;;;;;;22.13;15.70;;;0.20;99.90;;;;;;5035879;28;20518;-59
2023/01/18 06:45:52;;;;;;;23.97;15.57;;;0.20;99.90;;;;;;5031197;28;20482;-59
2023/01/18 06:48:22;;;;;;;21.20;15.10;;;0.20;99.90;;;;;;5032635;28;20471;-60
2023/01/18 06:50:51;;;;;;;21.73;15.67;;;0.20;99.90;;;;;;5031884;28;20566;-60
2023/01/18 06:53:21;;;;;;;19.77;15.20;;;0.20;99.90;;;;;;5031519;28;20463;-60
2023/01/18 06:55:53;;;;;;;20.43;15.80;;;0.20;99.90;;;;;;5030610;28;20908;-59
2023/01/18 06:58:22;;;;;;;20.03;14.70;;;0.20;99.90;;;;;;5033311;28;20467;-59
2023/01/18 07:00:50;;;;;;;22.23;16.40;;;0.20;99.90;;;;;;5032730;28;21005;-61
2023/01/18 07:03:18;;;;;;;22.77;16.07;;;0.20;99.90;;;;;;5034452;28;21017;-59
2023/01/18 07:05:46;;;;;;;20.03;15.47;;;0.10;99.90;;;;;;5037364;28;20559;-60
2023/01/18 07:08:14;;;;;;;25.30;17.07;;;0.10;99.90;;;;;;5034915;28;20893;-60
2023/01/18 07:10:44;;;;;;;23.10;16.73;;;0.10;99.90;;;;;;5031595;28;20811;-60
2023/01/18 07:13:12;;;;;;;22.53;16.13;;;0.10;99.90;;;;;;5024541;28;20474;-59
2023/01/18 07:15:40;;;;;;;22.83;16.23;;;0.10;99.90;;;;;;5031914;28;20859;-59
2023/01/18 07:18:08;;;;;;;20.80;16.00;;;0.10;99.90;;;;;;5032258;28;20486;-60
2023/01/18 07:20:38;;;;;;;20.33;15.43;;;0.10;99.90;;;;;;5032348;28;20471;-60
2023/01/18 07:23:07;;;;;;;23.57;17.03;;;0.10;99.90;;;;;;5032635;28;20814;-59
2023/01/18 07:25:35;;;;;;;24.30;17.40;;;0.10;99.90;;;;;;5032305;28;20469;-59
2023/01/18 07:28:04;;;;;;;23.57;16.13;;;0.10;99.90;;;;;;5039779;28;20478;-59
2023/01/18 07:30:32;;;;;;;24.50;16.90;;;0.10;99.90;;;;;;5041761;28;20456;-60
2023/01/18 07:33:00;;;;;;;20.43;15.87;;;0.10;99.90;;;;;;5041183;28;20489;-59
2023/01/18 07:35:29;;;;;;;24.87;15.97;;;0.10;99.90;;;;;;5043461;28;20465;-60
2023/01/18 07:37:57;;;;;;;21.97;17.17;;;0.10;99.90;;;;;;5055216;28;20462;-60
2023/01/18 07:40:25;;;;;;;21.93;16.20;;;0.00;99.90;;;;;;5056176;28;20462;-60
2023/01/18 07:42:57;;;;;;;24.03;17.07;;;0.10;99.90;;;;;;5055862;28;20489;-60
2023/01/18 07:45:27;;;;;;;25.17;17.77;;;0.00;99.90;;;;;;5055868;28;20853;-60
2023/01/18 07:47:55;;;;;;;23.83;18.00;;;0.00;99.90;;;;;;5054009;28;20469;-60
2023/01/18 07:50:23;;;;;;;26.23;17.03;;;0.00;99.90;;;;;;5035708;28;20454;-60
2023/01/18 07:52:51;;;;;;;24.57;17.30;;;0.00;99.90;;;;;;5035081;28;20954;-60
2023/01/18 07:55:20;;;;;;;27.47;18.37;;;0.00;99.90;;;;;;5035469;28;20510;-60
2023/01/18 07:57:48;;;;;;;30.67;18.97;;;0.00;99.90;;;;;;5040732;28;20516;-60
2023/01/18 08:00:17;;;;;;;31.57;20.30;;;0.10;99.90;;;;;;5046739;28;20466;-60
2023/01/18 08:02:50;;;;;;;29.00;20.27;;;0.10;99.90;;;;;;5055434;28;20502;-60
2023/01/18 08:05:22;;;;;;;31.43;20.23;;;0.10;99.90;;;;;;5043988;28;20871;-60
2023/01/18 08:07:52;;;;;;;26.87;18.93;;;0.10;99.90;;;;;;5035506;28;20455;-61
2023/01/18 08:10:21;;;;;;;26.37;18.10;;;0.10;99.90;;;;;;5035466;28;20473;-60
2023/01/18 08:12:50;;;;;;;21.17;15.33;;;0.20;99.90;;;;;;5035308;28;20473;-60
2023/01/18 08:15:18;;;;;;;24.70;18.97;;;0.30;99.90;;;;;;5035754;28;20474;-60
2023/01/18 08:17:49;;;;;;;25.23;18.10;;;0.30;99.90;;;;;;5035248;28;20961;-60
2023/01/18 08:20:19;;;;;;;24.00;16.87;;;0.30;99.90;;;;;;5035314;28;20462;-60
2023/01/18 08:22:47;;;;;;;23.97;17.13;;;0.30;99.90;;;;;;5034968;28;20487;-60
2023/01/18 08:25:16;;;;;;;26.33;18.03;;;0.30;99.90;;;;;;5015694;28;20464;-60
2023/01/18 08:27:44;;;;;;;22.80;17.43;;;0.30;99.90;;;;;;5019897;28;20874;-61
2023/01/18 08:30:13;;;;;;;23.97;18.03;;;0.30;99.90;;;;;;5034778;28;20472;-60
2023/01/18 08:32:41;;;;;;;24.60;17.87;;;0.30;99.90;;;;;;5041291;28;20474;-60
2023/01/18 08:35:10;;;;;;;22.83;17.43;;;0.30;99.90;;;;;;5035335;28;20467;-60
2023/01/18 08:37:38;;;;;;;24.33;17.63;;;0.30;99.90;;;;;;5034782;28;20474;-60
2023/01/18 08:40:07;;;;;;;26.37;18.80;;;0.30;99.90;;;;;;5035037;28;20459;-60
2023/01/18 08:42:35;;;;;;;23.67;17.03;;;0.30;99.90;;;;;;5034600;28;20970;-60
2023/01/18 08:45:04;;;;;;;23.73;16.53;;;0.30;99.90;;;;;;5035151;28;21146;-60
2023/01/18 08:47:32;;;;;;;28.87;18.77;;;0.30;99.90;;;;;;5034580;28;20832;-60
2023/01/18 08:50:00;;;;;;;25.43;17.33;;;0.40;99.90;;;;;;5034705;28;20459;-60
2023/01/18 08:52:30;;;;;;;23.33;17.47;;;0.40;99.90;;;;;;5034671;28;20840;-60
2023/01/18 08:54:58;;;;;;;28.77;18.33;;;0.40;99.90;;;;;;5034549;28;20467;-60
2023/01/18 08:57:27;;;;;;;29.17;19.37;;;0.50;99.90;;;;;;5038675;28;20471;-60
2023/01/18 08:59:55;;;;;;;26.13;18.77;;;0.50;99.90;;;;;;5044307;28;20563;-60
2023/01/18 09:02:26;;;;;;;23.73;17.70;;;0.50;99.90;;;;;;5037805;28;21052;-60
2023/01/18 09:04:55;;;;;;;24.20;17.63;;;0.50;99.90;;;;;;5045813;28;20526;-60
2023/01/18 09:07:23;;;;;;;22.50;17.73;;;0.60;99.90;;;;;;5032938;28;20823;-61
2023/01/18 09:09:52;;;;;;;24.07;17.47;;;0.60;99.90;;;;;;5014888;28;20543;-61
2023/01/18 09:12:20;;;;;;;23.23;17.43;;;0.50;99.90;;;;;;5014557;28;20470;-60
2023/01/18 09:14:48;;;;;;;29.63;17.00;;;0.60;99.90;;;;;;5014611;28;20466;-60
2023/01/18 09:17:18;;;;;;;25.27;17.57;;;0.70;99.90;;;;;;5014511;28;20475;-60
2023/01/18 09:19:46;;;;;;;23.80;18.00;;;0.70;99.90;;;;;;5014192;28;20464;-61
2023/01/18 09:22:14;;;;;;;25.47;17.17;;;0.80;99.90;;;;;;5014600;28;20469;-60
2023/01/18 09:24:43;;;;;;;20.00;15.33;;;0.90;99.90;;;;;;5014233;28;21003;-61
2023/01/18 09:27:12;;;;;;;23.60;17.07;;;0.90;99.90;;;;;;5022165;28;20474;-61
2023/01/18 09:29:40;;;;;;;23.53;15.60;;;0.90;99.90;;;;;;5037484;28;20463;-60
2023/01/18 09:32:09;;;;;;;25.47;17.83;;;1.00;99.90;;;;;;5051806;28;20842;-60
2023/01/18 09:34:37;;;;;;;24.63;17.70;;;1.00;99.90;;;;;;5037644;28;20963;-60
2023/01/18 09:37:05;;;;;;;22.23;17.20;;;1.00;99.90;;;;;;5033946;28;20468;-60
2023/01/18 09:39:33;;;;;;;24.23;19.23;;;1.10;99.90;;;;;;5033915;28;20566;-60
2023/01/18 09:42:21;;;;;;;24.73;18.20;;;1.10;99.90;;;;;;5033809;28;20962;-60
2023/01/18 09:44:52;;;;;;;24.63;17.37;;;1.20;99.90;;;;;;5032772;28;20567;-60
2023/01/18 09:47:23;;;;;;;22.10;16.57;;;1.20;99.90;;;;;;5033549;28;20467;-60
2023/01/18 09:49:55;;;;;;;22.47;16.97;;;1.20;99.90;;;;;;5043543;28;20473;-61
2023/01/18 09:52:42;;;;;;;24.27;17.73;;;1.20;99.90;;;;;;5027905;28;20566;-62
2023/01/18 09:55:18;;;;;;;21.17;15.80;;;1.30;99.90;;;;;;5026626;28;20994;-61
2023/01/18 09:58:04;;;;;;;22.53;15.77;;;1.30;99.90;;;;;;5026411;28;20958;-62
2023/01/18 10:00:36;;;;;;;21.13;15.57;;;1.40;99.90;;;;;;5024836;28;20479;-61
2023/01/18 10:03:12;;;;;;;23.30;16.37;;;1.40;99.90;;;;;;5029185;28;20992;-61
2023/01/18 10:05:47;;;;;;;21.40;16.37;;;1.50;99.90;;;;;;5030205;28;20488;-61
2023/01/18 10:08:20;;;;;;;23.17;16.13;;;1.60;99.90;;;;;;5033837;28;20470;-62
2023/01/18 10:10:55;;;;;;;21.70;15.97;;;1.60;99.90;;;;;;5033593;28;20574;-62
2023/01/18 10:13:38;;;;;;;24.60;16.53;;;1.70;99.90;;;;;;5029130;28;20522;-62
2023/01/18 10:16:13;;;;;;;22.47;15.57;;;1.70;99.90;;;;;;5027993;28;20467;-62
2023/01/18 10:18:45;;;;;;;20.17;15.40;;;1.80;99.90;;;;;;5027930;28;20478;-62
2023/01/18 10:21:25;;;;;;;19.63;15.17;;;1.90;99.90;;;;;;5027341;28;20471;-62
2023/01/18 10:24:11;;;;;;;17.10;14.07;;;1.90;99.90;;;;;;5027785;28;20497;-60
2023/01/18 10:26:40;;;;;;;21.17;15.67;;;1.90;99.90;;;;;;5032797;28;20495;-60
2023/01/18 10:29:15;;;;;;;22.33;15.57;;;2.20;99.90;;;;;;5030535;28;20556;-62
2023/01/18 10:31:55;;;;;;;20.43;15.33;;;2.20;99.90;;;;;;5030346;28;20479;-62
2023/01/18 10:34:31;;;;;;;21.87;14.53;;;2.40;99.90;;;;;;5029922;28;20824;-62
2023/01/18 10:37:11;;;;;;;21.27;15.33;;;2.50;99.90;;;;;;5032771;28;20478;-61
2023/01/18 10:39:42;;;;;;;20.43;14.90;;;2.60;99.90;;;;;;5031224;28;20470;-61
2023/01/18 10:42:19;;;;;;;19.87;14.83;;;2.70;99.90;;;;;;5031899;28;20483;-62
2023/01/18 10:44:49;;;;;;;19.90;15.53;;;2.80;99.90;;;;;;5028541;28;20491;-61
2023/01/18 10:47:17;;;;;;;19.47;14.07;;;2.90;99.90;;;;;;5033564;28;20480;-61
2023/01/18 10:49:49;;;;;;;23.30;15.57;;;3.00;99.90;;;;;;5031615;28;20544;-61
2023/01/18 10:52:26;;;;;;;19.13;14.43;;;2.90;99.90;;;;;;5029652;28;20482;-61
2023/01/18 10:54:56;;;;;;;19.13;14.00;;;2.90;99.90;;;;;;5023152;28;20495;-61
2023/01/18 10:57:29;;;;;;;17.03;13.30;;;2.80;99.90;;;;;;5026551;28;20482;-62
2023/01/18 10:59:59;;;;;;;18.70;14.80;;;3.00;99.90;;;;;;5025592;28;20483;-63
2023/01/18 11:02:30;;;;;;;18.60;15.00;;;3.00;99.90;;;;;;5026650;28;20492;-62
2023/01/18 11:05:02;;;;;;;17.33;13.73;;;3.20;99.90;;;;;;5026772;28;20904;-61
2023/01/18 11:07:31;;;;;;;20.63;13.77;;;3.20;99.90;;;;;;5025647;28;20480;-61
2023/01/18 11:10:05;;;;;;;19.90;13.87;;;3.30;99.90;;;;;;5026599;28;20564;-62
2023/01/18 11:12:39;;;;;;;18.67;14.17;;;3.30;99.90;;;;;;5032122;28;20604;-63
2023/01/18 11:15:30;;;;;;;17.10;13.73;;;3.40;99.90;;;;;;5029206;28;20468;-62
2023/01/18 11:18:01;;;;;;;19.57;13.63;;;3.40;99.90;;;;;;5030170;28;20464;-62
2023/01/18 11:20:35;;;;;;;17.43;12.90;;;3.50;99.90;;;;;;5031054;28;20464;-62
2023/01/18 11:23:06;;;;;;;19.43;13.50;;;3.50;99.90;;;;;;5028816;28;20512;-62
2023/01/18 11:25:39;;;;;;;17.50;13.33;;;3.60;99.90;;;;;;5025344;28;20496;-61
2023/01/18 11:28:17;;;;;;;17.63;13.03;;;3.60;99.90;;;;;;5030366;28;20462;-62
2023/01/18 11:30:52;;;;;;;16.83;13.20;;;3.60;99.90;;;;;;5028185;28;20488;-62
2023/01/18 11:33:21;;;;;;;17.30;13.20;;;3.70;99.90;;;;;;5028800;28;20488;-62
2023/01/18 11:35:55;;;;;;;15.83;12.30;;;3.70;99.90;;;;;;5028551;28;20497;-62
2023/01/18 11:38:28;;;;;;;17.77;12.97;;;3.80;99.90;;;;;;5027898;28;20888;-62
2023/01/18 11:41:05;;;;;;;14.37;11.67;;;3.60;99.90;;;;;;5030018;28;20500;-63
2023/01/18 11:43:38;;;;;;;16.87;12.33;;;3.60;99.90;;;;;;5032112;28;20508;-62
2023/01/18 11:46:24;;;;;;;17.67;12.50;;;3.70;99.90;;;;;;5033729;28;20480;-62
2023/01/18 11:48:57;;;;;;;17.60;12.23;;;3.80;99.90;;;;;;5035247;28;20440;-62
2023/01/18 11:51:33;;;;;;;16.60;12.80;;;3.80;99.90;;;;;;5035414;28;20837;-62
2023/01/18 11:54:10;;;;;;;16.43;13.23;;;3.90;99.90;;;;;;5029198;28;20490;-63
2023/01/18 11:56:42;;;;;;;16.67;12.70;;;4.00;99.90;;;;;;5029283;28;20447;-62
2023/01/18 11:59:14;;;;;;;17.37;12.97;;;4.00;99.90;;;;;;5029877;28;20462;-62
2023/01/18 12:01:59;;;;;;;17.20;12.50;;;3.90;99.90;;;;;;5031188;28;20450;-63
2023/01/18 12:04:43;;;;;;;18.33;13.27;;;3.90;99.90;;;;;;5028392;28;20438;-62
2023/01/18 12:07:34;;;;;;;16.13;12.57;;;3.90;99.90;;;;;;5030308;28;20524;-62
2023/01/18 12:10:07;;;;;;;17.70;13.30;;;4.00;99.90;;;;;;5033205;28;20439;-62
2023/01/18 12:12:52;;;;;;;17.77;13.00;;;4.10;99.90;;;;;;5033159;28;20457;-62
2023/01/18 12:15:37;;;;;;;17.87;13.57;;;4.10;99.90;;;;;;5031782;28;20441;-63
2023/01/18 12:18:21;;;;;;;17.10;13.20;;;4.10;99.90;;;;;;5028916;28;20450;-63
2023/01/18 12:20:59;;;;;;;16.83;12.93;;;4.20;99.90;;;;;;5030750;28;20983;-62
2023/01/18 12:24:12;;;;;;;20.33;13.50;;;4.10;99.90;;;;;;5027479;28;20455;-63
2023/01/18 12:26:49;;;;;;;17.43;14.03;;;4.20;99.90;;;;;;5029032;28;20486;-62
2023/01/18 12:29:55;;;;;;;17.60;13.70;;;4.30;99.90;;;;;;5034330;28;20588;-62
2023/01/18 12:32:43;;;;;;;18.33;12.90;;;4.20;99.90;;;;;;5032599;28;20446;-62
2023/01/18 12:35:27;;;;;;;21.67;12.50;;;4.20;99.90;;;;;;5033273;28;20442;-62
2023/01/18 12:38:07;;;;;;;19.30;13.87;;;4.30;99.90;;;;;;5034756;28;20437;-63
2023/01/18 12:40:49;;;;;;;18.37;12.87;;;4.30;99.90;;;;;;5035424;28;20451;-63
2023/01/18 12:43:31;;;;;;;19.60;13.80;;;4.30;99.90;;;;;;5032754;28;20442;-63
2023/01/18 12:46:05;;;;;;;19.73;12.90;;;4.30;99.90;;;;;;5028649;28;20497;-62
2023/01/18 12:48:42;;;;;;;17.93;12.80;;;4.40;99.90;;;;;;5028778;28;20472;-63
2023/01/18 12:51:16;;;;;;;17.43;13.60;;;4.40;99.90;;;;;;5028090;28;20452;-59
2023/01/18 12:53:48;;;;;;;19.83;14.10;;;4.50;99.90;;;;;;5027955;28;20612;-59
2023/01/18 12:56:20;;;;;;;24.80;16.67;;;4.40;99.90;;;;;;5030124;28;20781;-60
2023/01/18 12:58:54;;;;;;;23.33;14.97;;;4.40;99.90;;;;;;5030394;28;20487;-60
2023/01/18 13:01:26;;;;;;;18.20;13.63;;;4.40;99.90;;;;;;5027232;28;20436;-59
2023/01/18 13:04:01;;;;;;;20.40;13.23;;;4.40;99.90;;;;;;5028865;28;20692;-60
2023/01/18 13:06:33;;;;;;;17.63;12.60;;;4.30;99.90;;;;;;5030382;28;20466;-60
2023/01/18 13:09:06;;;;;;;20.90;13.43;;;4.40;99.90;;;;;;5029245;28;20436;-60
2023/01/18 13:11:37;;;;;;;15.10;11.90;;;4.30;99.90;;;;;;5030175;28;20500;-60
2023/01/18 13:14:14;;;;;;;15.47;11.27;;;4.30;99.90;;;;;;5027351;28;20449;-60
2023/01/18 13:16:50;;;;;;;16.33;11.53;;;4.30;99.90;;;;;;5028254;28;20449;-60
2023/01/18 13:19:23;;;;;;;13.87;11.33;;;4.20;99.90;;;;;;5028254;28;20439;-60
2023/01/18 13:22:03;;;;;;;17.17;11.63;;;4.30;99.90;;;;;;5028852;28;20938;-60
2023/01/18 13:24:46;;;;;;;17.20;12.40;;;4.40;99.90;;;;;;5028283;28;20811;-60
2023/01/18 13:27:16;;;;;;;14.60;11.70;;;4.30;99.90;;;;;;5026560;28;20473;-59
2023/01/18 13:29:45;;;;;;;16.20;11.07;;;4.40;99.90;;;;;;5029956;28;20431;-58